createdAt,value
2019-02-09T00:01:10.254Z,7.79
2019-02-09T00:03:39.105Z,7.79
2019-02-09T00:06:07.804Z,7.79
2019-02-09T00:08:36.552Z,7.84
2019-02-09T00:11:05.559Z,7.89
2019-02-09T00:13:35.747Z,7.89
2019-02-09T00:16:04.862Z,7.92
2019-02-09T00:18:33.611Z,7.96
2019-02-09T00:21:02.297Z,7.98
2019-02-09T00:23:31.008Z,7.99
2019-02-09T00:25:59.750Z,8.06
2019-02-09T00:28:29.298Z,8.04
2019-02-09T00:30:57.962Z,8.04
2019-02-09T00:33:26.741Z,8.06
2019-02-09T00:35:55.429Z,8.11
2019-02-09T00:38:24.321Z,8.07
2019-02-09T00:40:53.021Z,8.05
2019-02-09T00:43:22.242Z,8.05
2019-02-09T00:45:50.941Z,8.06
2019-02-09T00:48:19.627Z,8.04
2019-02-09T00:50:50.662Z,8.06
2019-02-09T00:53:19.358Z,8.11
2019-02-09T00:55:48.025Z,8.26
2019-02-09T00:58:16.714Z,8.26
2019-02-09T01:00:45.360Z,8.23
2019-02-09T01:03:14.133Z,8.18
2019-02-09T01:05:44.635Z,8.21
2019-02-09T01:08:13.896Z,8.19
2019-02-09T01:10:42.645Z,8.18
2019-02-09T01:13:11.523Z,8.18
2019-02-09T01:15:40.220Z,8.11
2019-02-09T01:18:11.240Z,8.09
2019-02-09T01:20:39.956Z,8.18
2019-02-09T01:23:09.280Z,8.14
2019-02-09T01:25:38.070Z,8.14
2019-02-09T01:28:06.902Z,8.11
2019-02-09T01:30:36.756Z,8.09
2019-02-09T01:33:07.945Z,8.10
2019-02-09T01:35:36.650Z,8.11
2019-02-09T01:38:05.651Z,8.17
2019-02-09T01:40:34.335Z,8.17
2019-02-09T01:43:03.088Z,8.16
2019-02-09T01:45:32.921Z,8.14
2019-02-09T01:48:01.608Z,8.14
2019-02-09T01:50:31.269Z,8.18
2019-02-09T01:53:00.072Z,8.16
2019-02-09T01:55:29.516Z,8.17
2019-02-09T01:57:58.320Z,8.18
2019-02-09T02:00:29.050Z,8.11
2019-02-09T02:02:57.827Z,8.17
2019-02-09T02:05:26.592Z,8.09
2019-02-09T02:07:55.402Z,8.12
2019-02-09T02:10:35.182Z,8.07
2019-02-09T02:13:04.488Z,7.89
2019-02-09T02:15:33.241Z,7.89
2019-02-09T02:18:01.936Z,7.89
2019-02-09T02:20:31.293Z,7.90
2019-02-09T02:23:01.272Z,7.83
2019-02-09T02:25:30.027Z,7.80
2019-02-09T02:27:58.687Z,7.82
2019-02-09T02:30:32.097Z,7.80
2019-02-09T02:33:00.764Z,7.73
2019-02-09T02:35:29.556Z,7.64
2019-02-09T02:37:58.215Z,7.57
2019-02-09T02:40:26.929Z,7.55
2019-02-09T02:42:55.652Z,7.47
2019-02-09T02:45:24.440Z,7.40
2019-02-09T02:47:53.133Z,7.39
2019-02-09T02:50:21.832Z,7.43
2019-02-09T02:52:50.430Z,7.32
2019-02-09T02:55:20.767Z,7.25
2019-02-09T02:57:50.550Z,7.19
2019-02-09T03:00:31.676Z,7.14
2019-02-09T03:02:54.438Z,7.04
2019-02-09T03:05:23.793Z,7.00
2019-02-09T03:07:52.493Z,6.96
2019-02-09T03:10:21.276Z,6.95
2019-02-09T03:12:49.967Z,6.89
2019-02-09T03:15:28.998Z,6.84
2019-02-09T03:17:57.705Z,6.90
2019-02-09T03:20:26.450Z,6.85
2019-02-09T03:22:55.048Z,6.83
2019-02-09T03:25:25.548Z,6.82
2019-02-09T03:27:54.316Z,6.82
2019-02-09T03:30:22.939Z,6.91
2019-02-09T03:32:51.704Z,6.96
2019-02-09T03:35:20.476Z,6.82
2019-02-09T03:37:49.151Z,6.73
2019-02-09T03:40:18.861Z,6.68
2019-02-09T03:42:47.619Z,6.53
2019-02-09T03:45:21.349Z,6.35
2019-02-09T03:47:49.201Z,6.28
2019-02-09T03:50:17.876Z,6.28
2019-02-09T03:52:46.571Z,6.26
2019-02-09T03:55:15.313Z,6.19
2019-02-09T03:57:44.221Z,6.12
2019-02-09T04:00:16.023Z,6.14
2019-02-09T04:02:44.492Z,6.08
2019-02-09T04:05:13.245Z,6.11
2019-02-09T04:07:41.975Z,6.13
2019-02-09T04:10:11.579Z,6.08
2019-02-09T04:12:40.346Z,6.08
2019-02-09T04:15:09.698Z,6.17
2019-02-09T04:17:38.453Z,6.11
2019-02-09T04:20:08.595Z,6.15
2019-02-09T04:22:37.299Z,6.17
2019-02-09T04:25:06.246Z,6.17
2019-02-09T04:27:37.290Z,6.10
2019-02-09T04:30:10.386Z,6.15
2019-02-09T04:32:38.753Z,6.18
2019-02-09T04:35:07.713Z,6.14
2019-02-09T04:37:36.402Z,6.15
2019-02-09T04:40:06.562Z,6.23
2019-02-09T04:42:35.279Z,6.14
2019-02-09T04:45:04.114Z,6.17
2019-02-09T04:47:32.790Z,6.12
2019-02-09T04:50:01.484Z,6.09
2019-02-09T04:52:30.208Z,6.07
2019-02-09T04:54:58.965Z,6.11
2019-02-09T04:57:27.640Z,6.09
2019-02-09T04:59:56.700Z,6.10
2019-02-09T05:02:27.481Z,6.12
2019-02-09T05:04:56.126Z,6.15
2019-02-09T05:07:25.478Z,6.22
2019-02-09T05:09:54.473Z,6.25
2019-02-09T05:12:23.160Z,6.28
2019-02-09T05:14:51.874Z,6.25
2019-02-09T05:17:20.530Z,6.35
2019-02-09T05:19:50.180Z,6.41
2019-02-09T05:22:18.866Z,6.35
2019-02-09T05:24:47.548Z,6.33
2019-02-09T05:27:16.252Z,6.30
2019-02-09T05:29:44.843Z,6.27
2019-02-09T05:32:15.625Z,6.36
2019-02-09T05:34:44.350Z,6.32
2019-02-09T05:37:13.061Z,6.38
2019-02-09T05:39:41.748Z,6.36
2019-02-09T05:42:10.468Z,6.36
2019-02-09T05:44:39.115Z,6.28
2019-02-09T05:47:08.986Z,6.32
2019-02-09T05:49:37.695Z,6.39
2019-02-09T05:52:08.654Z,6.40
2019-02-09T05:54:37.310Z,6.43
2019-02-09T05:57:05.975Z,6.40
2019-02-09T05:59:34.714Z,6.44
2019-02-09T06:02:03.457Z,6.54
2019-02-09T06:04:32.145Z,6.57
2019-02-09T06:07:00.843Z,6.60
2019-02-09T06:09:29.583Z,6.55
2019-02-09T06:11:58.578Z,6.58
2019-02-09T06:14:27.311Z,6.56
2019-02-09T06:16:55.993Z,6.52
2019-02-09T06:19:24.703Z,6.58
2019-02-09T06:21:53.439Z,6.59
2019-02-09T06:24:22.138Z,6.57
2019-02-09T06:26:50.806Z,6.56
2019-02-09T06:29:19.513Z,6.54
2019-02-09T06:31:48.277Z,6.63
2019-02-09T06:34:16.910Z,6.62
2019-02-09T06:36:45.543Z,6.59
2019-02-09T06:39:14.170Z,6.61
2019-02-09T06:41:42.855Z,6.70
2019-02-09T06:44:11.549Z,6.76
2019-02-09T06:46:41.502Z,6.93
2019-02-09T06:49:10.210Z,6.87
2019-02-09T06:51:38.920Z,6.76
2019-02-09T06:54:07.526Z,6.91
2019-02-09T06:56:36.278Z,6.94
2019-02-09T06:59:04.924Z,6.85
2019-02-09T07:01:33.685Z,6.71
2019-02-09T07:04:02.372Z,6.60
2019-02-09T07:06:31.056Z,6.70
2019-02-09T07:08:59.758Z,6.65
2019-02-09T07:11:28.518Z,6.72
2019-02-09T07:13:57.239Z,6.67
2019-02-09T07:16:38.332Z,6.66
2019-02-09T07:19:07.981Z,6.81
2019-02-09T07:21:36.735Z,6.89
2019-02-09T07:24:05.567Z,7.06
2019-02-09T07:26:34.129Z,7.06
2019-02-09T07:29:02.641Z,7.13
2019-02-09T07:31:31.129Z,7.25
2019-02-09T07:34:01.176Z,7.26
2019-02-09T08:29:28.642Z,7.69
2019-02-09T08:59:10.103Z,8.25
2019-02-09T09:31:37.759Z,8.39
2019-02-09T09:36:48.320Z,8.55
2019-02-09T09:39:17.005Z,8.55
2019-02-09T09:41:45.731Z,8.48
2019-02-09T09:44:19.433Z,8.48
2019-02-09T09:46:49.487Z,8.51
2019-02-09T09:49:22.858Z,8.46
2019-02-09T09:51:59.165Z,8.42
2019-02-09T09:54:28.029Z,8.45
2019-02-09T09:57:43.432Z,8.37
2019-02-09T10:03:11.119Z,8.39
2019-02-09T10:05:47.090Z,8.29
2019-02-09T10:08:31.219Z,8.29
2019-02-09T10:14:19.584Z,8.42
2019-02-09T10:20:22.597Z,8.53
2019-02-09T10:28:36.389Z,8.63
2019-02-09T10:48:40.589Z,9.30
2019-02-09T10:51:10.402Z,9.33
2019-02-09T10:53:39.188Z,9.42
2019-02-09T10:56:08.506Z,9.46
2019-02-09T10:58:37.406Z,9.39
2019-02-09T11:01:20.010Z,9.36
2019-02-09T11:03:48.887Z,9.29
2019-02-09T11:06:17.689Z,9.32
2019-02-09T11:08:46.487Z,9.27
2019-02-09T11:11:15.316Z,9.32
2019-02-09T11:13:44.121Z,9.28
2019-02-09T11:16:13.059Z,9.26
2019-02-09T11:18:41.863Z,9.26
2019-02-09T11:21:13.212Z,9.36
2019-02-09T11:23:42.663Z,9.42
2019-02-09T11:26:11.782Z,9.48
2019-02-09T11:28:41.023Z,9.53
2019-02-09T11:31:19.348Z,9.53
2019-02-09T11:33:43.950Z,9.63
2019-02-09T11:36:12.819Z,9.66
2019-02-09T11:38:42.039Z,9.66
2019-02-09T11:41:11.098Z,9.67
2019-02-09T11:43:39.970Z,9.69
2019-02-09T11:46:11.443Z,9.68
2019-02-09T11:48:40.713Z,9.66
2019-02-09T11:54:54.744Z,9.61
2019-02-09T11:57:23.441Z,9.58
2019-02-09T11:59:52.374Z,9.57
2019-02-09T12:02:21.649Z,9.53
2019-02-09T12:04:50.191Z,9.63
2019-02-09T12:07:19.050Z,9.63
2019-02-09T12:09:47.827Z,9.63
2019-02-09T12:12:22.617Z,9.69
2019-02-09T12:14:51.859Z,9.71
2019-02-09T12:17:20.608Z,9.79
2019-02-09T12:19:49.429Z,9.79
2019-02-09T12:22:17.934Z,9.77
2019-02-09T12:24:46.412Z,9.76
2019-02-09T12:27:18.775Z,9.81
2019-02-09T12:29:47.458Z,9.83
2019-02-09T12:32:17.398Z,9.81
2019-02-09T12:34:45.972Z,9.81
2019-02-09T12:37:20.834Z,9.85
2019-02-09T12:39:52.806Z,9.87
2019-02-09T12:42:21.457Z,9.89
2019-02-09T12:44:50.061Z,9.94
2019-02-09T12:47:18.727Z,9.93
2019-02-09T12:49:47.357Z,9.93
2019-02-09T12:52:15.987Z,9.90
2019-02-09T12:54:44.536Z,9.86
